Taichung Ching Chuang Kang Airport
RCMQ : now visible

Airfield :











YOU CAN JOIN US ON...

 
LOGIN :

Register | Disclaimer

   EN    FR    IT 

 









Legend :    VFR   Marginal VFR   IFR   Intensive IFR   Very Intensive IFR
Visi :
Ceiling :
>= 8 km
>= 3000ft
5 to 8 km
1000 to 3000 ft
1500m to 5 km
500 to 1000 ft
800 to 1500m
200 to 500 ft
< 800m
< 200 ft
Symbols :   Thunderstorms  Fog  Heavy snow  Heavy precipitations  Wind > 20 kt






- Airport Elevation : 663 ft
- IATA code : RMQ


RCMQ - Taichung Ching Chuang Kang

CURRENT METAR :
  • 151500Z 00000KT 9999 FEW010 SCT100 27/23 Q1012 RMK A2989

EXPIRED METARs :
  • 151400Z 17004KT 9999 FEW010 SCT100 28/24 Q1012 NOSIG RMK A2989
  • 151330Z 22006KT 9999 FEW010 SCT030 BKN100 28/25 Q1011 NOSIG RMK A2988
  • 151300Z 22007KT 9999 FEW010 SCT030 BKN100 29/26 Q1011 NOSIG RMK A2988
  • 151230Z 18004KT 9999 FEW010 SCT030 BKN100 29/25 Q1011 NOSIG RMK A2987
  • 151200Z 00000KT 9999 FEW010 SCT030 BKN100 29/25 Q1011 NOSIG RMK A2986
  • 151130Z 31005KT 9999 FEW010 SCT030 BKN100 29/27 Q1011 NOSIG RMK A2986
  • 151100Z 32004KT 9999 FEW010 SCT030 BKN100 29/27 Q1010 NOSIG RMK A2985
  • 151030Z 33008KT 9999 FEW010 SCT030 BKN200 30/26 Q1010 NOSIG RMK A2983

TAF TAF RCMQ
Valid from the 15 at 12:00 until the 16 at 12:00 UTC


151100Z 1512/1612 16004KT 9999 FEW010 SCT030 BKN200 TX34/1605Z TN26/1521Z
BECMG 1513/1516 16004KT FEW010 SCT020
TEMPO 1518/1523 FEW010 SCT040 BKN080
BECMG 1602/1605 32010KT FEW010 SCT025 BKN200
TEMPO 1606/1611 FEW008 BKN020 BKN060
RCAA FIR / Asia



MET'MAP, your aeronautical weather chart ! - Copyright ORBIFLY December 2007 - Disclaimer

ORBIFLY MET'MAP TEAM :

Programming & Development : Alexandra Zaïnal
Original concept : Baudouin d'Aumeries
Technical & hardware support : Manuel Goepfert
Assistance : Marc-Olivier Méhu




SOURCES & CREDITS :

   NOAA       Earth
Advisory